Billings Logan International Airport
KBIL : now visible

Airfield :











YOU CAN JOIN US ON...

 
LOGIN :

Register | Disclaimer

   EN    FR    IT 

 









Legend :    VFR   Marginal VFR   IFR   Intensive IFR   Very Intensive IFR
Visi :
Ceiling :
>= 8 km
>= 3000ft
5 to 8 km
1000 to 3000 ft
1500m to 5 km
500 to 1000 ft
800 to 1500m
200 to 500 ft
< 800m
< 200 ft
Symbols :   Thunderstorms  Fog  Heavy snow  Heavy precipitations  Wind > 20 kt






- Airport Elevation : 3652 ft
- IATA code : BIL


KBIL - Billings Logan International

CURRENT METAR :
  • 142053Z 19004KT 4SM BR FEW002 SCT075 BKN095 M01/M03 A2975 RMK AO2 SLP105 VIS NW-E 2 T10111028 56011

EXPIRED METARs :
  • 142038Z 19004KT 2 1/2SM BR SCT002 OVC100 M01/M03 A2975 RMK AO2 TWR VIS 3 T10111028
  • 142005Z 22007KT 2 1/2SM BR BKN002 BKN070 OVC100 M02/M03 A2975 RMK AO2 TWR VIS 3 T10171033
  • 141953Z 23007KT 3SM BR OVC002 M02/M03 A2976 RMK AO2 SLP110 T10171033
  • 141932Z 22005KT 2SM BR OVC002 M02/M03 A2976 RMK AO2 TWR VIS 2 1/2 VIS W 3/4 T10171033
  • 141907Z 22008KT 1 1/2SM BR OVC001 M02/M04 A2976 RMK AO2 SFC VIS 2 VIS W 3/4 T10171039
  • 141853Z 20004KT 1SM R10L/P6000FT BR OVC002 M02/M03 A2977 RMK AO2 SFC VIS 1 1/2 SLP113 VIS W 3/4 T10171033
  • 141845Z VRB03KT 1SM R10L/P6000FT BR OVC002 M02/M04 A2977 RMK AO2 VIS W 3/4 T10171039
  • 141817Z 23003KT 1/8SM R10L/1400V4000FT FZFG VV001 M02/M04 A2978 RMK AO2 T10171039

TAF KBIL
Valid from the 14 at 21:00 until the 15 at 18:00 UTC


142109Z 1421/1518 23007KT 4SM BR VCFG SCT002 OVC100
FM150200 25008KT P6SM VCFG FEW002 BKN050
FM150600 26008KT P6SM BKN050
FM151700 25011KT P6SM SCT050



MET'MAP, your aeronautical weather chart ! - Copyright ORBIFLY December 2007 - Disclaimer

ORBIFLY MET'MAP TEAM :

Programming & Development : Alexandra Zaïnal
Concept & original design : Baudouin d'Aumeries
Assistance for programming : Marc-Olivier Méhu
Technical & hardware support : Manuel Goepfert

Contact : metmap@orbifly.com




SOURCES & CREDITS :

   NOAA       Earth
Advisory